sensor_id;sensor_type;location;lat;lon;timestamp;temperature;humidity
8152;DHT22;4117;53.622;9.958;2023-03-14T00:00:16;10.30;1.00
8152;DHT22;4117;53.622;9.958;2023-03-14T00:02:44;10.30;1.00
8152;DHT22;4117;53.622;9.958;2023-03-14T00:05:12;10.30;1.00
8152;DHT22;4117;53.622;9.958;2023-03-14T00:07:39;10.30;1.00
8152;DHT22;4117;53.622;9.958;2023-03-14T00:10:10;10.30;1.00
8152;DHT22;4117;53.622;9.958;2023-03-14T00:12:38;10.30;1.00
8152;DHT22;4117;53.622;9.958;2023-03-14T00:15:06;10.30;1.00
8152;DHT22;4117;53.622;9.958;2023-03-14T00:17:34;10.30;1.00
8152;DHT22;4117;53.622;9.958;2023-03-14T00:20:03;10.30;1.00
8152;DHT22;4117;53.622;9.958;2023-03-14T00:22:33;10.30;1.00
8152;DHT22;4117;53.622;9.958;2023-03-14T00:25:00;10.20;1.00
8152;DHT22;4117;53.622;9.958;2023-03-14T00:27:29;10.30;1.00
8152;DHT22;4117;53.622;9.958;2023-03-14T00:29:56;10.20;1.00
8152;DHT22;4117;53.622;9.958;2023-03-14T00:32:23;10.20;1.00
8152;DHT22;4117;53.622;9.958;2023-03-14T00:34:50;10.30;1.00
8152;DHT22;4117;53.622;9.958;2023-03-14T00:37:17;10.20;1.00
8152;DHT22;4117;53.622;9.958;2023-03-14T00:39:45;10.20;1.00
8152;DHT22;4117;53.622;9.958;2023-03-14T00:42:13;10.20;1.00
8152;DHT22;4117;53.622;9.958;2023-03-14T00:44:41;10.20;1.00
8152;DHT22;4117;53.622;9.958;2023-03-14T00:47:09;10.20;1.00
8152;DHT22;4117;53.622;9.958;2023-03-14T00:49:36;10.20;1.00
8152;DHT22;4117;53.622;9.958;2023-03-14T00:52:03;10.20;1.00
8152;DHT22;4117;53.622;9.958;2023-03-14T00:54:30;10.20;1.00
8152;DHT22;4117;53.622;9.958;2023-03-14T00:56:57;10.20;1.00
8152;DHT22;4117;53.622;9.958;2023-03-14T00:59:24;10.30;1.00
8152;DHT22;4117;53.622;9.958;2023-03-14T01:01:52;10.30;1.00
8152;DHT22;4117;53.622;9.958;2023-03-14T01:04:19;10.30;1.00
8152;DHT22;4117;53.622;9.958;2023-03-14T01:06:46;10.20;1.00
8152;DHT22;4117;53.622;9.958;2023-03-14T01:09:14;10.30;1.00
8152;DHT22;4117;53.622;9.958;2023-03-14T01:11:43;10.30;1.00
8152;DHT22;4117;53.622;9.958;2023-03-14T01:14:12;10.30;1.00
8152;DHT22;4117;53.622;9.958;2023-03-14T01:16:39;10.30;1.00
8152;DHT22;4117;53.622;9.958;2023-03-14T01:19:09;10.30;1.00
8152;DHT22;4117;53.622;9.958;2023-03-14T01:21:36;10.30;1.00
8152;DHT22;4117;53.622;9.958;2023-03-14T01:24:05;10.40;1.00
8152;DHT22;4117;53.622;9.958;2023-03-14T01:26:34;10.40;1.00
8152;DHT22;4117;53.622;9.958;2023-03-14T01:29:02;10.40;1.00
8152;DHT22;4117;53.622;9.958;2023-03-14T01:31:29;10.40;1.00
8152;DHT22;4117;53.622;9.958;2023-03-14T01:33:56;10.40;1.00
8152;DHT22;4117;53.622;9.958;2023-03-14T01:36:25;10.40;1.00
8152;DHT22;4117;53.622;9.958;2023-03-14T01:38:52;10.30;1.00
8152;DHT22;4117;53.622;9.958;2023-03-14T01:41:21;10.30;1.00
8152;DHT22;4117;53.622;9.958;2023-03-14T01:43:49;10.40;1.00
8152;DHT22;4117;53.622;9.958;2023-03-14T01:46:25;10.30;1.00
8152;DHT22;4117;53.622;9.958;2023-03-14T01:48:57;10.30;1.00
8152;DHT22;4117;53.622;9.958;2023-03-14T01:51:32;10.30;1.00
8152;DHT22;4117;53.622;9.958;2023-03-14T01:54:04;10.30;1.00
8152;DHT22;4117;53.622;9.958;2023-03-14T01:56:33;10.30;1.00
8152;DHT22;4117;53.622;9.958;2023-03-14T01:59:01;10.30;1.00
8152;DHT22;4117;53.622;9.958;2023-03-14T02:01:30;10.30;1.00
8152;DHT22;4117;53.622;9.958;2023-03-14T02:04:01;10.30;1.00
8152;DHT22;4117;53.622;9.958;2023-03-14T02:06:37;10.30;1.00
8152;DHT22;4117;53.622;9.958;2023-03-14T02:09:06;10.30;1.00
8152;DHT22;4117;53.622;9.958;2023-03-14T02:11:33;10.30;1.00
8152;DHT22;4117;53.622;9.958;2023-03-14T02:14:02;10.40;1.00
8152;DHT22;4117;53.622;9.958;2023-03-14T02:16:30;10.40;1.00
8152;DHT22;4117;53.622;9.958;2023-03-14T02:18:57;10.40;1.00
8152;DHT22;4117;53.622;9.958;2023-03-14T02:21:34;10.30;1.00
8152;DHT22;4117;53.622;9.958;2023-03-14T02:24:09;10.30;1.00
8152;DHT22;4117;53.622;9.958;2023-03-14T02:26:39;10.20;1.00
8152;DHT22;4117;53.622;9.958;2023-03-14T02:29:09;10.20;1.00
8152;DHT22;4117;53.622;9.958;2023-03-14T02:31:36;10.30;1.00
8152;DHT22;4117;53.622;9.958;2023-03-14T02:34:03;10.20;1.00
8152;DHT22;4117;53.622;9.958;2023-03-14T02:36:32;10.20;1.00
8152;DHT22;4117;53.622;9.958;2023-03-14T02:39:06;10.20;1.00
8152;DHT22;4117;53.622;9.958;2023-03-14T02:41:34;10.20;1.00
8152;DHT22;4117;53.622;9.958;2023-03-14T02:44:01;10.20;1.00
8152;DHT22;4117;53.622;9.958;2023-03-14T02:46:29;10.10;1.00
8152;DHT22;4117;53.622;9.958;2023-03-14T02:49:00;10.20;1.00
8152;DHT22;4117;53.622;9.958;2023-03-14T02:51:28;10.20;1.00
8152;DHT22;4117;53.622;9.958;2023-03-14T02:53:56;10.20;1.00
8152;DHT22;4117;53.622;9.958;2023-03-14T02:56:23;10.20;1.00
8152;DHT22;4117;53.622;9.958;2023-03-14T02:58:50;10.30;1.00
8152;DHT22;4117;53.622;9.958;2023-03-14T03:01:17;10.30;1.00
8152;DHT22;4117;53.622;9.958;2023-03-14T03:03:45;10.30;1.00
8152;DHT22;4117;53.622;9.958;2023-03-14T03:06:12;10.30;1.00
8152;DHT22;4117;53.622;9.958;2023-03-14T03:08:39;10.20;1.00
8152;DHT22;4117;53.622;9.958;2023-03-14T03:11:07;10.30;1.00
8152;DHT22;4117;53.622;9.958;2023-03-14T03:13:34;10.30;1.00
8152;DHT22;4117;53.622;9.958;2023-03-14T03:16:02;10.30;1.00
8152;DHT22;4117;53.622;9.958;2023-03-14T03:18:29;10.40;1.00
8152;DHT22;4117;53.622;9.958;2023-03-14T03:21:01;10.40;1.00
8152;DHT22;4117;53.622;9.958;2023-03-14T03:23:28;10.40;1.00
8152;DHT22;4117;53.622;9.958;2023-03-14T03:25:55;10.40;1.00
8152;DHT22;4117;53.622;9.958;2023-03-14T03:28:22;10.40;1.00
8152;DHT22;4117;53.622;9.958;2023-03-14T03:30:50;10.50;1.00
8152;DHT22;4117;53.622;9.958;2023-03-14T03:33:17;10.50;1.00
8152;DHT22;4117;53.622;9.958;2023-03-14T03:35:45;10.50;1.00
8152;DHT22;4117;53.622;9.958;2023-03-14T03:38:14;10.50;1.00
8152;DHT22;4117;53.622;9.958;2023-03-14T03:40:41;10.50;1.00
8152;DHT22;4117;53.622;9.958;2023-03-14T03:43:08;10.50;1.00
8152;DHT22;4117;53.622;9.958;2023-03-14T03:45:35;10.50;1.00
8152;DHT22;4117;53.622;9.958;2023-03-14T03:48:03;10.50;1.00
8152;DHT22;4117;53.622;9.958;2023-03-14T03:50:30;10.50;1.00
8152;DHT22;4117;53.622;9.958;2023-03-14T03:52:57;10.50;1.00
8152;DHT22;4117;53.622;9.958;2023-03-14T03:55:26;10.50;1.00
8152;DHT22;4117;53.622;9.958;2023-03-14T03:57:53;10.40;1.00
8152;DHT22;4117;53.622;9.958;2023-03-14T04:00:21;10.50;1.00
8152;DHT22;4117;53.622;9.958;2023-03-14T04:02:51;10.40;1.00
8152;DHT22;4117;53.622;9.958;2023-03-14T04:05:18;10.40;1.00
8152;DHT22;4117;53.622;9.958;2023-03-14T04:07:45;10.40;1.00
8152;DHT22;4117;53.622;9.958;2023-03-14T04:10:12;10.40;1.00
8152;DHT22;4117;53.622;9.958;2023-03-14T04:12:41;10.40;1.00
8152;DHT22;4117;53.622;9.958;2023-03-14T04:15:08;10.40;1.00
8152;DHT22;4117;53.622;9.958;2023-03-14T04:17:36;10.40;1.00
8152;DHT22;4117;53.622;9.958;2023-03-14T04:20:04;10.40;1.00
8152;DHT22;4117;53.622;9.958;2023-03-14T04:22:33;10.40;1.00
8152;DHT22;4117;53.622;9.958;2023-03-14T04:25:00;10.40;1.00
8152;DHT22;4117;53.622;9.958;2023-03-14T04:27:29;10.40;1.00
8152;DHT22;4117;53.622;9.958;2023-03-14T04:29:57;10.40;1.00
8152;DHT22;4117;53.622;9.958;2023-03-14T04:32:24;10.40;1.00
8152;DHT22;4117;53.622;9.958;2023-03-14T04:34:51;10.40;1.00
8152;DHT22;4117;53.622;9.958;2023-03-14T04:37:18;10.40;1.00
8152;DHT22;4117;53.622;9.958;2023-03-14T04:39:46;10.30;1.00
8152;DHT22;4117;53.622;9.958;2023-03-14T04:42:13;10.40;1.00
8152;DHT22;4117;53.622;9.958;2023-03-14T04:44:40;10.40;1.00
8152;DHT22;4117;53.622;9.958;2023-03-14T04:47:10;10.40;1.00
8152;DHT22;4117;53.622;9.958;2023-03-14T04:49:37;10.40;1.00
8152;DHT22;4117;53.622;9.958;2023-03-14T04:52:04;10.40;1.00
8152;DHT22;4117;53.622;9.958;2023-03-14T04:54:31;10.40;1.00
8152;DHT22;4117;53.622;9.958;2023-03-14T04:56:58;10.20;1.00
8152;DHT22;4117;53.622;9.958;2023-03-14T04:59:25;10.10;1.00
8152;DHT22;4117;53.622;9.958;2023-03-14T05:01:52;10.00;1.00
8152;DHT22;4117;53.622;9.958;2023-03-14T05:04:21;9.90;1.00
8152;DHT22;4117;53.622;9.958;2023-03-14T05:06:47;9.90;1.00
8152;DHT22;4117;53.622;9.958;2023-03-14T05:09:15;9.80;1.00
8152;DHT22;4117;53.622;9.958;2023-03-14T05:11:44;9.70;1.00
8152;DHT22;4117;53.622;9.958;2023-03-14T05:14:11;9.70;1.00
8152;DHT22;4117;53.622;9.958;2023-03-14T05:16:38;9.70;1.00
8152;DHT22;4117;53.622;9.958;2023-03-14T05:19:06;9.60;1.00
8152;DHT22;4117;53.622;9.958;2023-03-14T05:21:35;9.50;5.60
8152;DHT22;4117;53.622;9.958;2023-03-14T05:24:03;9.40;8.70
8152;DHT22;4117;53.622;9.958;2023-03-14T05:26:30;9.40;11.20
8152;DHT22;4117;53.622;9.958;2023-03-14T05:28:57;9.40;12.80
8152;DHT22;4117;53.622;9.958;2023-03-14T05:31:24;9.40;16.30
8152;DHT22;4117;53.622;9.958;2023-03-14T05:33:51;9.30;16.20
8152;DHT22;4117;53.622;9.958;2023-03-14T05:36:18;9.30;16.30
8152;DHT22;4117;53.622;9.958;2023-03-14T05:38:47;9.30;17.60
8152;DHT22;4117;53.622;9.958;2023-03-14T05:41:14;9.30;18.80
8152;DHT22;4117;53.622;9.958;2023-03-14T05:43:41;9.30;18.70
8152;DHT22;4117;53.622;9.958;2023-03-14T05:46:08;9.30;21.40
8152;DHT22;4117;53.622;9.958;2023-03-14T05:48:35;9.20;24.30
8152;DHT22;4117;53.622;9.958;2023-03-14T05:51:03;9.20;26.50
8152;DHT22;4117;53.622;9.958;2023-03-14T05:53:30;9.20;26.50
8152;DHT22;4117;53.622;9.958;2023-03-14T05:55:58;9.20;26.50
8152;DHT22;4117;53.622;9.958;2023-03-14T05:58:25;9.30;27.10
8152;DHT22;4117;53.622;9.958;2023-03-14T06:00:52;9.30;26.60
8152;DHT22;4117;53.622;9.958;2023-03-14T06:03:19;9.20;27.40
8152;DHT22;4117;53.622;9.958;2023-03-14T06:05:49;9.30;28.60
8152;DHT22;4117;53.622;9.958;2023-03-14T06:08:16;9.30;27.60
8152;DHT22;4117;53.622;9.958;2023-03-14T06:10:43;9.30;30.30
8152;DHT22;4117;53.622;9.958;2023-03-14T06:13:12;9.30;32.20
8152;DHT22;4117;53.622;9.958;2023-03-14T06:15:41;9.20;36.70
8152;DHT22;4117;53.622;9.958;2023-03-14T06:18:08;9.20;38.10
8152;DHT22;4117;53.622;9.958;2023-03-14T06:20:36;9.20;42.00
8152;DHT22;4117;53.622;9.958;2023-03-14T06:23:04;9.20;39.40
8152;DHT22;4117;53.622;9.958;2023-03-14T06:25:32;9.30;46.80
8152;DHT22;4117;53.622;9.958;2023-03-14T06:27:59;9.30;50.50
8152;DHT22;4117;53.622;9.958;2023-03-14T06:30:30;9.20;50.40
8152;DHT22;4117;53.622;9.958;2023-03-14T06:32:58;9.20;53.50
8152;DHT22;4117;53.622;9.958;2023-03-14T06:35:25;9.20;60.70
8152;DHT22;4117;53.622;9.958;2023-03-14T06:37:52;9.30;60.10
8152;DHT22;4117;53.622;9.958;2023-03-14T06:40:22;9.30;62.60
8152;DHT22;4117;53.622;9.958;2023-03-14T06:42:50;9.20;62.50
8152;DHT22;4117;53.622;9.958;2023-03-14T06:45:17;9.20;62.50
8152;DHT22;4117;53.622;9.958;2023-03-14T06:47:46;9.20;62.50
8152;DHT22;4117;53.622;9.958;2023-03-14T06:50:13;9.20;62.50
8152;DHT22;4117;53.622;9.958;2023-03-14T06:52:40;9.30;62.60
8152;DHT22;4117;53.622;9.958;2023-03-14T06:55:11;9.30;62.60
8152;DHT22;4117;53.622;9.958;2023-03-14T06:57:38;9.30;62.00
8152;DHT22;4117;53.622;9.958;2023-03-14T07:00:07;9.30;62.70
8152;DHT22;4117;53.622;9.958;2023-03-14T07:02:34;9.30;62.60
8152;DHT22;4117;53.622;9.958;2023-03-14T07:05:03;9.30;62.60
8152;DHT22;4117;53.622;9.958;2023-03-14T07:07:31;9.30;60.70
8152;DHT22;4117;53.622;9.958;2023-03-14T07:09:59;9.30;62.30
8152;DHT22;4117;53.622;9.958;2023-03-14T07:12:26;9.30;60.70
8152;DHT22;4117;53.622;9.958;2023-03-14T07:14:53;9.30;50.60
8152;DHT22;4117;53.622;9.958;2023-03-14T07:17:20;9.30;54.00
8152;DHT22;4117;53.622;9.958;2023-03-14T07:19:48;9.30;57.50
8152;DHT22;4117;53.622;9.958;2023-03-14T07:22:16;9.30;56.00
8152;DHT22;4117;53.622;9.958;2023-03-14T07:24:43;9.30;53.20
8152;DHT22;4117;53.622;9.958;2023-03-14T07:27:10;9.30;50.50
8152;DHT22;4117;53.622;9.958;2023-03-14T07:29:38;9.30;45.70
8152;DHT22;4117;53.622;9.958;2023-03-14T07:32:05;9.30;46.20
8152;DHT22;4117;53.622;9.958;2023-03-14T07:34:33;9.30;41.30
8152;DHT22;4117;53.622;9.958;2023-03-14T07:37:01;9.30;42.90
8152;DHT22;4117;53.622;9.958;2023-03-14T07:39:31;9.40;38.30
8152;DHT22;4117;53.622;9.958;2023-03-14T07:41:58;9.40;41.00
8152;DHT22;4117;53.622;9.958;2023-03-14T07:44:25;9.40;39.90
8152;DHT22;4117;53.622;9.958;2023-03-14T07:46:52;9.40;38.70
8152;DHT22;4117;53.622;9.958;2023-03-14T07:49:20;9.40;38.20
8152;DHT22;4117;53.622;9.958;2023-03-14T07:51:47;9.30;39.70
8152;DHT22;4117;53.622;9.958;2023-03-14T07:54:14;9.30;44.40
8152;DHT22;4117;53.622;9.958;2023-03-14T07:56:43;9.20;46.60
8152;DHT22;4117;53.622;9.958;2023-03-14T07:59:11;9.20;45.90
8152;DHT22;4117;53.622;9.958;2023-03-14T08:01:38;9.20;48.10
8152;DHT22;4117;53.622;9.958;2023-03-14T08:04:06;9.20;46.90
8152;DHT22;4117;53.622;9.958;2023-03-14T08:06:33;9.20;47.60
8152;DHT22;4117;53.622;9.958;2023-03-14T08:09:02;9.30;46.00
8152;DHT22;4117;53.622;9.958;2023-03-14T08:11:29;9.30;44.60
8152;DHT22;4117;53.622;9.958;2023-03-14T08:13:58;9.30;44.90
8152;DHT22;4117;53.622;9.958;2023-03-14T08:16:25;9.30;42.50
8152;DHT22;4117;53.622;9.958;2023-03-14T08:18:52;9.40;42.40
8152;DHT22;4117;53.622;9.958;2023-03-14T08:21:20;9.40;44.30
8152;DHT22;4117;53.622;9.958;2023-03-14T08:23:49;9.40;41.00
8152;DHT22;4117;53.622;9.958;2023-03-14T08:26:16;9.50;40.60
8152;DHT22;4117;53.622;9.958;2023-03-14T08:28:44;9.50;41.60
8152;DHT22;4117;53.622;9.958;2023-03-14T08:31:12;9.50;40.50
8152;DHT22;4117;53.622;9.958;2023-03-14T08:33:40;9.50;38.90
8152;DHT22;4117;53.622;9.958;2023-03-14T08:36:07;9.60;41.10
8152;DHT22;4117;53.622;9.958;2023-03-14T08:38:35;9.60;38.30
8152;DHT22;4117;53.622;9.958;2023-03-14T08:41:02;9.70;38.50
8152;DHT22;4117;53.622;9.958;2023-03-14T08:43:30;9.70;38.50
8152;DHT22;4117;53.622;9.958;2023-03-14T08:45:58;9.70;38.50
8152;DHT22;4117;53.622;9.958;2023-03-14T08:48:27;9.70;38.50
8152;DHT22;4117;53.622;9.958;2023-03-14T08:50:56;9.70;38.50
8152;DHT22;4117;53.622;9.958;2023-03-14T08:53:23;9.70;37.90
8152;DHT22;4117;53.622;9.958;2023-03-14T08:55:54;9.70;38.60
8152;DHT22;4117;53.622;9.958;2023-03-14T08:58:21;9.70;38.50
8152;DHT22;4117;53.622;9.958;2023-03-14T09:00:49;9.70;41.30
8152;DHT22;4117;53.622;9.958;2023-03-14T09:03:16;9.60;42.60
8152;DHT22;4117;53.622;9.958;2023-03-14T09:05:44;9.60;42.90
8152;DHT22;4117;53.622;9.958;2023-03-14T09:08:12;9.60;45.40
8152;DHT22;4117;53.622;9.958;2023-03-14T09:10:39;9.60;46.20
8152;DHT22;4117;53.622;9.958;2023-03-14T09:13:06;9.70;46.30
8152;DHT22;4117;53.622;9.958;2023-03-14T09:15:33;9.60;50.70
8152;DHT22;4117;53.622;9.958;2023-03-14T09:18:00;9.60;50.70
8152;DHT22;4117;53.622;9.958;2023-03-14T09:20:27;9.60;49.90
8152;DHT22;4117;53.622;9.958;2023-03-14T09:22:56;9.60;50.20
8152;DHT22;4117;53.622;9.958;2023-03-14T09:25:26;9.60;50.70
8152;DHT22;4117;53.622;9.958;2023-03-14T09:27:53;9.60;50.70
8152;DHT22;4117;53.622;9.958;2023-03-14T09:30:20;9.60;50.70
8152;DHT22;4117;53.622;9.958;2023-03-14T09:32:47;9.60;50.80
8152;DHT22;4117;53.622;9.958;2023-03-14T09:35:14;9.60;50.80
8152;DHT22;4117;53.622;9.958;2023-03-14T09:37:41;9.60;50.70
8152;DHT22;4117;53.622;9.958;2023-03-14T09:40:14;9.60;52.30
8152;DHT22;4117;53.622;9.958;2023-03-14T09:42:42;9.60;55.30
8152;DHT22;4117;53.622;9.958;2023-03-14T09:45:23;9.60;51.00
8152;DHT22;4117;53.622;9.958;2023-03-14T09:47:52;9.60;50.70
8152;DHT22;4117;53.622;9.958;2023-03-14T09:50:21;9.50;51.30
8152;DHT22;4117;53.622;9.958;2023-03-14T09:52:51;9.20;50.30
8152;DHT22;4117;53.622;9.958;2023-03-14T09:55:23;9.00;50.20
8152;DHT22;4117;53.622;9.958;2023-03-14T09:57:54;8.70;45.60
8152;DHT22;4117;53.622;9.958;2023-03-14T10:00:25;8.40;44.60
8152;DHT22;4117;53.622;9.958;2023-03-14T10:02:54;8.20;41.80
8152;DHT22;4117;53.622;9.958;2023-03-14T10:05:23;8.10;43.50
8152;DHT22;4117;53.622;9.958;2023-03-14T10:07:51;8.10;45.70
8152;DHT22;4117;53.622;9.958;2023-03-14T10:10:20;8.00;43.20
8152;DHT22;4117;53.622;9.958;2023-03-14T10:12:56;8.00;45.60
8152;DHT22;4117;53.622;9.958;2023-03-14T10:15:29;7.90;47.40
8152;DHT22;4117;53.622;9.958;2023-03-14T10:17:59;7.70;41.30
8152;DHT22;4117;53.622;9.958;2023-03-14T10:20:32;7.40;36.70
8152;DHT22;4117;53.622;9.958;2023-03-14T10:23:00;7.20;36.50
8152;DHT22;4117;53.622;9.958;2023-03-14T10:25:29;7.00;36.40
8152;DHT22;4117;53.622;9.958;2023-03-14T10:27:58;6.90;29.60
8152;DHT22;4117;53.622;9.958;2023-03-14T10:30:34;6.90;36.30
8152;DHT22;4117;53.622;9.958;2023-03-14T10:33:10;6.60;29.60
8152;DHT22;4117;53.622;9.958;2023-03-14T10:35:38;6.20;25.90
8152;DHT22;4117;53.622;9.958;2023-03-14T10:38:05;6.10;26.00
8152;DHT22;4117;53.622;9.958;2023-03-14T10:40:40;5.90;29.30
8152;DHT22;4117;53.622;9.958;2023-03-14T10:43:15;5.80;28.10
8152;DHT22;4117;53.622;9.958;2023-03-14T10:45:44;5.70;25.90
8152;DHT22;4117;53.622;9.958;2023-03-14T10:48:20;5.80;26.30
8152;DHT22;4117;53.622;9.958;2023-03-14T10:50:49;5.70;24.30
8152;DHT22;4117;53.622;9.958;2023-03-14T10:53:17;5.70;24.30
8152;DHT22;4117;53.622;9.958;2023-03-14T10:55:45;5.50;24.20
8152;DHT22;4117;53.622;9.958;2023-03-14T10:58:24;5.40;24.20
8152;DHT22;4117;53.622;9.958;2023-03-14T11:01:00;5.20;24.00
8152;DHT22;4117;53.622;9.958;2023-03-14T11:03:32;5.20;24.10
8152;DHT22;4117;53.622;9.958;2023-03-14T11:06:06;5.10;24.00
8152;DHT22;4117;53.622;9.958;2023-03-14T11:08:42;5.00;22.00
8152;DHT22;4117;53.622;9.958;2023-03-14T11:11:15;5.00;19.00
8152;DHT22;4117;53.622;9.958;2023-03-14T11:13:54;5.00;19.50
8152;DHT22;4117;53.622;9.958;2023-03-14T11:16:28;5.00;18.90
8152;DHT22;4117;53.622;9.958;2023-03-14T11:19:15;5.00;17.00
8152;DHT22;4117;53.622;9.958;2023-03-14T11:21:52;4.90;21.20
8152;DHT22;4117;53.622;9.958;2023-03-14T11:24:35;5.10;23.90
8152;DHT22;4117;53.622;9.958;2023-03-14T11:27:08;5.00;20.10
8152;DHT22;4117;53.622;9.958;2023-03-14T11:29:40;5.10;20.90
8152;DHT22;4117;53.622;9.958;2023-03-14T11:32:13;5.10;23.00
8152;DHT22;4117;53.622;9.958;2023-03-14T11:34:47;5.30;24.10
8152;DHT22;4117;53.622;9.958;2023-03-14T11:37:22;5.30;24.10
8152;DHT22;4117;53.622;9.958;2023-03-14T11:39:57;5.30;23.40
8152;DHT22;4117;53.622;9.958;2023-03-14T11:42:26;5.20;18.80
8152;DHT22;4117;53.622;9.958;2023-03-14T11:44:58;5.10;13.70
8152;DHT22;4117;53.622;9.958;2023-03-14T11:47:30;5.10;13.10
8152;DHT22;4117;53.622;9.958;2023-03-14T11:50:02;5.10;11.90
8152;DHT22;4117;53.622;9.958;2023-03-14T11:52:33;5.30;13.80
8152;DHT22;4117;53.622;9.958;2023-03-14T11:55:07;5.30;12.80
8152;DHT22;4117;53.622;9.958;2023-03-14T11:57:37;5.20;4.10
8152;DHT22;4117;53.622;9.958;2023-03-14T12:00:14;5.00;1.00
8152;DHT22;4117;53.622;9.958;2023-03-14T12:02:48;4.90;1.00
8152;DHT22;4117;53.622;9.958;2023-03-14T12:05:40;5.00;1.00
8152;DHT22;4117;53.622;9.958;2023-03-14T12:08:26;5.10;1.00
8152;DHT22;4117;53.622;9.958;2023-03-14T12:10:59;5.10;1.00
8152;DHT22;4117;53.622;9.958;2023-03-14T12:13:29;5.10;1.00
8152;DHT22;4117;53.622;9.958;2023-03-14T12:16:00;5.10;1.00
8152;DHT22;4117;53.622;9.958;2023-03-14T12:18:32;5.10;1.00
8152;DHT22;4117;53.622;9.958;2023-03-14T12:21:01;5.10;1.00
8152;DHT22;4117;53.622;9.958;2023-03-14T12:23:36;5.10;1.00
8152;DHT22;4117;53.622;9.958;2023-03-14T12:26:16;5.10;1.00
8152;DHT22;4117;53.622;9.958;2023-03-14T12:28:44;5.00;1.00
8152;DHT22;4117;53.622;9.958;2023-03-14T12:31:40;5.00;1.00
8152;DHT22;4117;53.622;9.958;2023-03-14T12:34:29;5.00;1.00
8152;DHT22;4117;53.622;9.958;2023-03-14T12:37:06;5.00;1.00
8152;DHT22;4117;53.622;9.958;2023-03-14T12:39:47;5.00;1.00
8152;DHT22;4117;53.622;9.958;2023-03-14T12:42:21;5.00;1.00
8152;DHT22;4117;53.622;9.958;2023-03-14T12:45:15;5.10;1.00
8152;DHT22;4117;53.622;9.958;2023-03-14T12:48:01;5.00;1.00
8152;DHT22;4117;53.622;9.958;2023-03-14T12:50:34;5.10;1.00
8152;DHT22;4117;53.622;9.958;2023-03-14T12:56:24;5.20;1.00
8152;DHT22;4117;53.622;9.958;2023-03-14T12:59:05;5.20;1.00
8152;DHT22;4117;53.622;9.958;2023-03-14T13:01:34;5.10;1.00
8152;DHT22;4117;53.622;9.958;2023-03-14T13:04:08;5.20;3.00
8152;DHT22;4117;53.622;9.958;2023-03-14T13:06:47;5.20;1.00
8152;DHT22;4117;53.622;9.958;2023-03-14T13:12:23;5.30;1.00
8152;DHT22;4117;53.622;9.958;2023-03-14T13:14:53;5.30;1.00
8152;DHT22;4117;53.622;9.958;2023-03-14T13:17:24;5.30;1.00
8152;DHT22;4117;53.622;9.958;2023-03-14T13:19:56;5.40;1.00
8152;DHT22;4117;53.622;9.958;2023-03-14T13:22:26;5.50;1.00
8152;DHT22;4117;53.622;9.958;2023-03-14T13:25:00;5.50;1.00
8152;DHT22;4117;53.622;9.958;2023-03-14T13:27:30;5.40;1.00
8152;DHT22;4117;53.622;9.958;2023-03-14T13:29:59;5.40;1.00
8152;DHT22;4117;53.622;9.958;2023-03-14T13:32:31;5.50;1.00
8152;DHT22;4117;53.622;9.958;2023-03-14T13:34:59;5.40;1.00
8152;DHT22;4117;53.622;9.958;2023-03-14T13:37:27;5.40;1.00
8152;DHT22;4117;53.622;9.958;2023-03-14T13:39:55;5.40;1.00
8152;DHT22;4117;53.622;9.958;2023-03-14T13:42:25;5.40;1.00
8152;DHT22;4117;53.622;9.958;2023-03-14T13:44:53;5.30;1.00
8152;DHT22;4117;53.622;9.958;2023-03-14T13:47:23;5.30;1.00
8152;DHT22;4117;53.622;9.958;2023-03-14T13:49:50;5.30;1.00
8152;DHT22;4117;53.622;9.958;2023-03-14T13:52:27;5.30;1.00
8152;DHT22;4117;53.622;9.958;2023-03-14T13:54:54;5.30;1.00
8152;DHT22;4117;53.622;9.958;2023-03-14T13:57:22;5.30;1.00
8152;DHT22;4117;53.622;9.958;2023-03-14T13:59:59;5.30;1.00
8152;DHT22;4117;53.622;9.958;2023-03-14T14:02:31;5.30;1.00
8152;DHT22;4117;53.622;9.958;2023-03-14T14:04:59;5.30;1.00
8152;DHT22;4117;53.622;9.958;2023-03-14T14:07:28;5.20;1.00
8152;DHT22;4117;53.622;9.958;2023-03-14T14:09:55;5.20;1.00
8152;DHT22;4117;53.622;9.958;2023-03-14T14:12:28;5.20;1.00
8152;DHT22;4117;53.622;9.958;2023-03-14T14:14:59;5.20;1.00
8152;DHT22;4117;53.622;9.958;2023-03-14T14:17:32;5.40;1.00
8152;DHT22;4117;53.622;9.958;2023-03-14T14:20:01;5.40;1.00
8152;DHT22;4117;53.622;9.958;2023-03-14T14:22:32;5.40;1.00
8152;DHT22;4117;53.622;9.958;2023-03-14T14:25:00;5.40;1.00
8152;DHT22;4117;53.622;9.958;2023-03-14T14:27:29;5.40;1.00
8152;DHT22;4117;53.622;9.958;2023-03-14T14:29:59;5.30;1.00
8152;DHT22;4117;53.622;9.958;2023-03-14T14:32:26;5.20;1.00
8152;DHT22;4117;53.622;9.958;2023-03-14T14:34:58;5.20;1.00
8152;DHT22;4117;53.622;9.958;2023-03-14T14:37:27;5.20;1.00
8152;DHT22;4117;53.622;9.958;2023-03-14T14:39:57;5.20;1.00
8152;DHT22;4117;53.622;9.958;2023-03-14T14:42:26;5.20;1.00
8152;DHT22;4117;53.622;9.958;2023-03-14T14:44:55;5.20;1.00
8152;DHT22;4117;53.622;9.958;2023-03-14T14:47:24;5.20;1.00
8152;DHT22;4117;53.622;9.958;2023-03-14T14:49:52;5.10;1.00
8152;DHT22;4117;53.622;9.958;2023-03-14T14:52:20;5.10;1.00
8152;DHT22;4117;53.622;9.958;2023-03-14T14:54:51;5.10;1.00
8152;DHT22;4117;53.622;9.958;2023-03-14T14:57:23;5.20;1.00
8152;DHT22;4117;53.622;9.958;2023-03-14T14:59:55;5.30;1.00
8152;DHT22;4117;53.622;9.958;2023-03-14T15:02:32;5.40;1.00
8152;DHT22;4117;53.622;9.958;2023-03-14T15:05:04;5.60;1.00
8152;DHT22;4117;53.622;9.958;2023-03-14T15:07:32;5.70;1.00
8152;DHT22;4117;53.622;9.958;2023-03-14T15:09:59;5.70;1.00
8152;DHT22;4117;53.622;9.958;2023-03-14T15:12:27;5.60;1.00
8152;DHT22;4117;53.622;9.958;2023-03-14T15:14:54;5.60;1.00
8152;DHT22;4117;53.622;9.958;2023-03-14T15:17:23;5.50;1.00
8152;DHT22;4117;53.622;9.958;2023-03-14T15:19:50;5.50;1.00
8152;DHT22;4117;53.622;9.958;2023-03-14T15:22:17;5.60;1.00
8152;DHT22;4117;53.622;9.958;2023-03-14T15:24:44;5.60;1.00
8152;DHT22;4117;53.622;9.958;2023-03-14T15:27:13;5.60;1.00
8152;DHT22;4117;53.622;9.958;2023-03-14T15:29:43;5.60;1.00
8152;DHT22;4117;53.622;9.958;2023-03-14T15:32:12;5.50;1.00
8152;DHT22;4117;53.622;9.958;2023-03-14T15:34:39;5.40;1.00
8152;DHT22;4117;53.622;9.958;2023-03-14T15:37:10;5.30;1.00
8152;DHT22;4117;53.622;9.958;2023-03-14T15:39:38;5.30;1.00
8152;DHT22;4117;53.622;9.958;2023-03-14T15:42:05;5.30;1.00
8152;DHT22;4117;53.622;9.958;2023-03-14T15:44:32;5.30;1.00
8152;DHT22;4117;53.622;9.958;2023-03-14T15:47:00;5.20;1.00
8152;DHT22;4117;53.622;9.958;2023-03-14T15:49:27;5.20;1.00
8152;DHT22;4117;53.622;9.958;2023-03-14T15:51:54;5.20;1.00
8152;DHT22;4117;53.622;9.958;2023-03-14T15:54:21;5.20;1.00
8152;DHT22;4117;53.622;9.958;2023-03-14T15:56:48;5.10;1.00
8152;DHT22;4117;53.622;9.958;2023-03-14T15:59:17;5.10;1.00
8152;DHT22;4117;53.622;9.958;2023-03-14T16:01:44;5.10;1.00
8152;DHT22;4117;53.622;9.958;2023-03-14T16:04:14;5.10;1.00
8152;DHT22;4117;53.622;9.958;2023-03-14T16:06:42;5.10;1.00
8152;DHT22;4117;53.622;9.958;2023-03-14T16:09:10;5.10;1.00
8152;DHT22;4117;53.622;9.958;2023-03-14T16:11:37;5.10;1.00
8152;DHT22;4117;53.622;9.958;2023-03-14T16:14:04;5.10;1.00
8152;DHT22;4117;53.622;9.958;2023-03-14T16:16:32;5.20;1.00
8152;DHT22;4117;53.622;9.958;2023-03-14T16:18:59;5.10;1.00
8152;DHT22;4117;53.622;9.958;2023-03-14T16:21:27;5.10;1.00
8152;DHT22;4117;53.622;9.958;2023-03-14T16:23:54;5.10;1.00
8152;DHT22;4117;53.622;9.958;2023-03-14T16:26:21;5.00;1.00
8152;DHT22;4117;53.622;9.958;2023-03-14T16:28:48;5.00;1.00
8152;DHT22;4117;53.622;9.958;2023-03-14T16:31:16;4.90;1.00
8152;DHT22;4117;53.622;9.958;2023-03-14T16:33:45;4.90;1.00
8152;DHT22;4117;53.622;9.958;2023-03-14T16:36:13;4.80;1.00
8152;DHT22;4117;53.622;9.958;2023-03-14T16:38:43;4.90;1.00
8152;DHT22;4117;53.622;9.958;2023-03-14T16:41:12;4.90;1.00